Time;durP1;ratioP1;P1;durP2;ratioP2;P2;SDS_P1;SDS_P2;PMS_P1;PMS_P2;Temp;Humidity;BMP_temperature;BMP_pressure;BME280_temperature;BME280_humidity;BME280_pressure;Samples;Min_cycle;Max_cycle;Signal;HPM_P1;HPM_P2
2023/05/30 00:01:07;;;;;;;5.60;3.30;;;;;;;16.25;57.61;98339.25;5070333;28;20211;-84
2023/05/30 00:03:35;;;;;;;5.93;3.40;;;;;;;16.30;57.73;98341.50;5071045;28;20296;-84
2023/05/30 00:06:01;;;;;;;4.20;3.23;;;;;;;16.25;57.81;98338.41;5070963;28;20260;-84
2023/05/30 00:08:28;;;;;;;4.60;3.47;;;;;;;16.34;57.61;98349.09;5071077;28;20222;-84
2023/05/30 00:10:55;;;;;;;4.10;3.17;;;;;;;16.34;57.77;98357.09;5070315;28;20207;-84
2023/05/30 00:13:22;;;;;;;4.50;3.43;;;;;;;16.31;57.72;98352.06;5070810;28;20302;-84
2023/05/30 00:15:51;;;;;;;4.77;3.60;;;;;;;16.33;58.00;98351.91;5071085;28;20247;-84
2023/05/30 00:18:18;;;;;;;4.83;3.43;;;;;;;16.34;57.64;98350.94;5071067;28;20211;-84
2023/05/30 00:20:45;;;;;;;6.17;3.90;;;;;;;16.37;57.94;98362.19;5070181;28;20207;-84
2023/05/30 00:23:11;;;;;;;5.43;3.90;;;;;;;16.25;58.52;98365.06;5070775;28;20272;-84
2023/05/30 00:25:37;;;;;;;7.30;4.00;;;;;;;16.12;58.75;98369.81;5070656;28;20208;-84
2023/05/30 00:28:07;;;;;;;4.17;3.40;;;;;;;16.13;58.90;98370.66;5070823;28;20215;-84
2023/05/30 00:30:33;;;;;;;6.90;4.00;;;;;;;16.08;58.97;98372.88;5070355;28;20298;-83
2023/05/30 00:33:01;;;;;;;6.70;3.43;;;;;;;16.02;59.23;98379.56;5071789;28;20239;-83
2023/05/30 00:35:27;;;;;;;6.63;4.10;;;;;;;16.10;58.85;98366.44;5074811;28;20235;-84
2023/05/30 00:37:54;;;;;;;5.50;3.63;;;;;;;16.13;58.95;98376.00;5074685;28;20314;-84
2023/05/30 00:40:20;;;;;;;4.60;3.60;;;;;;;15.93;59.85;98374.19;5074114;28;20211;-84
2023/05/30 00:42:47;;;;;;;6.83;3.67;;;;;;;15.82;60.23;98382.31;5074710;28;20210;-84
2023/05/30 00:45:13;;;;;;;6.13;3.70;;;;;;;15.78;60.59;98387.06;5074403;28;20218;-84
2023/05/30 00:47:40;;;;;;;5.00;3.73;;;;;;;15.73;60.76;98383.06;5074706;28;20231;-85
2023/05/30 00:50:09;;;;;;;5.43;3.50;;;;;;;15.84;60.31;98375.00;5073792;28;20211;-84
2023/05/30 00:52:36;;;;;;;4.67;3.57;;;;;;;15.76;60.75;98385.50;5074201;28;20689;-84
2023/05/30 00:55:03;;;;;;;5.03;3.70;;;;;;;15.80;60.79;98378.91;5074025;28;20231;-84
2023/05/30 00:57:33;;;;;;;5.00;3.50;;;;;;;15.82;60.56;98377.78;5074223;28;20298;-84
2023/05/30 01:00:00;;;;;;;6.97;3.83;;;;;;;15.69;61.07;98378.97;5072900;28;20351;-84
2023/05/30 01:02:27;;;;;;;5.20;3.27;;;;;;;15.77;60.77;98379.19;5074386;28;20219;-84
2023/05/30 01:04:53;;;;;;;6.87;3.27;;;;;;;15.80;60.81;98373.56;5074215;28;20603;-84
2023/05/30 01:07:21;;;;;;;3.87;3.33;;;;;;;15.80;60.84;98382.44;5074050;28;20217;-84
2023/05/30 01:09:48;;;;;;;6.10;3.90;;;;;;;15.72;61.19;98376.06;5073616;28;20576;-84
2023/05/30 01:12:20;;;;;;;5.17;3.60;;;;;;;15.78;60.97;98380.88;5074287;28;20218;-84
2023/05/30 01:14:53;;;;;;;4.17;3.30;;;;;;;15.79;60.98;98380.75;5074152;28;20322;-83
2023/05/30 01:17:28;;;;;;;6.37;3.50;;;;;;;15.75;61.03;98381.97;5074130;28;20211;-83
2023/05/30 01:20:07;;;;;;;5.80;3.63;;;;;;;15.74;61.06;98374.09;5073395;28;20211;-83
2023/05/30 01:22:49;;;;;;;4.80;3.60;;;;;;;15.63;61.44;98377.69;5073752;28;20214;-83
2023/05/30 01:25:26;;;;;;;6.27;4.13;;;;;;;15.75;61.03;98365.97;5073760;28;20200;-83
2023/05/30 01:28:05;;;;;;;6.63;3.80;;;;;;;15.73;61.25;98357.28;5073938;28;20332;-83
2023/05/30 01:30:33;;;;;;;3.40;3.00;;;;;;;15.78;60.90;98359.53;5073041;28;20272;-84
2023/05/30 01:33:00;;;;;;;5.83;3.37;;;;;;;15.75;60.78;98354.47;5073642;28;20254;-83
2023/05/30 01:35:27;;;;;;;4.33;3.50;;;;;;;15.69;61.30;98349.66;5073616;28;20233;-83
2023/05/30 01:37:53;;;;;;;5.90;3.57;;;;;;;15.60;61.53;98353.13;5073768;28;20643;-83
2023/05/30 01:40:25;;;;;;;5.77;3.83;;;;;;;15.55;62.08;98358.00;5072999;28;20218;-83
2023/05/30 01:42:59;;;;;;;7.53;3.80;;;;;;;15.51;62.02;98356.59;5073528;28;20277;-85
2023/05/30 01:45:37;;;;;;;6.40;3.47;;;;;;;15.48;62.02;98364.84;5073433;28;20208;-83
2023/05/30 01:48:11;;;;;;;5.40;3.40;;;;;;;15.37;62.80;98367.56;5073572;28;20208;-83
2023/05/30 01:50:43;;;;;;;4.43;3.20;;;;;;;15.31;63.00;98370.72;5072940;28;20207;-83
2023/05/30 01:53:12;;;;;;;5.67;3.73;;;;;;;15.31;63.10;98373.38;5073479;28;20238;-84
2023/05/30 01:55:42;;;;;;;5.40;3.47;;;;;;;15.24;63.69;98385.53;5073936;28;20223;-84
2023/05/30 01:58:09;;;;;;;6.00;3.67;;;;;;;15.26;63.55;98375.56;5073281;28;20292;-83
2023/05/30 02:00:37;;;;;;;6.40;3.63;;;;;;;15.29;63.14;98372.66;5072095;28;20689;-84
2023/05/30 02:03:04;;;;;;;7.57;3.40;;;;;;;15.35;62.83;98362.41;5072800;28;20230;-84
2023/05/30 02:05:30;;;;;;;4.43;3.40;;;;;;;15.38;63.02;98371.91;5072835;28;20245;-84
2023/05/30 02:07:57;;;;;;;6.17;3.87;;;;;;;15.28;63.20;98377.13;5072856;28;20207;-83
2023/05/30 02:10:23;;;;;;;5.33;3.50;;;;;;;15.22;63.19;98369.66;5072303;28;20203;-84
2023/05/30 02:12:50;;;;;;;7.77;3.97;;;;;;;15.17;63.83;98371.91;5072788;28;20239;-83
2023/05/30 02:15:16;;;;;;;4.33;3.17;;;;;;;15.07;64.44;98375.44;5072726;28;20224;-84
2023/05/30 02:17:44;;;;;;;5.77;3.37;;;;;;;15.02;64.42;98372.34;5072649;28;20215;-84
2023/05/30 02:20:11;;;;;;;5.03;3.47;;;;;;;14.88;66.10;98388.56;5071847;28;20211;-84
2023/05/30 02:22:37;;;;;;;4.30;3.20;;;;;;;14.90;65.86;98382.16;5072837;28;20207;-83
2023/05/30 02:25:04;;;;;;;5.03;3.47;;;;;;;14.98;65.06;98378.88;5072508;28;20211;-84
2023/05/30 02:27:31;;;;;;;5.03;3.40;;;;;;;14.97;65.21;98377.19;5072667;28;20288;-84
2023/05/30 02:29:57;;;;;;;6.20;3.60;;;;;;;15.02;64.80;98375.81;5071875;28;20211;-84
2023/05/30 02:32:24;;;;;;;6.20;3.80;;;;;;;15.00;65.52;98383.09;5072567;28;20218;-84
2023/05/30 02:34:52;;;;;;;7.13;3.73;;;;;;;14.99;65.32;98383.22;5072125;28;20242;-84
2023/05/30 02:37:18;;;;;;;5.00;3.43;;;;;;;14.84;66.33;98395.97;5072325;28;20223;-83
2023/05/30 02:39:45;;;;;;;5.50;3.80;;;;;;;14.86;66.16;98396.69;5071364;28;20207;-83
2023/05/30 02:42:11;;;;;;;6.60;3.40;;;;;;;14.85;66.12;98392.34;5072302;28;20207;-83
2023/05/30 02:44:38;;;;;;;6.80;3.43;;;;;;;14.83;66.52;98394.28;5072025;28;20227;-83
2023/05/30 02:47:05;;;;;;;5.10;3.60;;;;;;;14.81;66.29;98390.06;5072193;28;20207;-83
2023/05/30 02:49:32;;;;;;;5.77;3.50;;;;;;;14.74;66.70;98388.88;5071181;28;20207;-84
2023/05/30 02:52:00;;;;;;;5.20;3.30;;;;;;;14.77;66.63;98391.25;5072123;28;20208;-84
2023/05/30 02:54:26;;;;;;;6.83;3.83;;;;;;;14.76;66.89;98389.59;5071971;28;20576;-84
2023/05/30 02:56:52;;;;;;;5.03;3.77;;;;;;;14.80;66.61;98391.03;5071218;28;20235;-84
2023/05/30 02:59:19;;;;;;;5.57;3.53;;;;;;;14.79;66.23;98387.50;5071212;28;20215;-83
2023/05/30 03:01:45;;;;;;;5.70;3.70;;;;;;;14.84;66.46;98395.16;5071706;28;20207;-84
2023/05/30 03:04:12;;;;;;;7.00;3.70;;;;;;;14.79;66.42;98390.19;5071606;28;20231;-84
2023/05/30 03:06:40;;;;;;;6.00;3.83;;;;;;;14.71;66.87;98397.94;5071967;28;20203;-84
2023/05/30 03:09:08;;;;;;;5.27;3.53;;;;;;;14.64;67.29;98402.09;5071456;28;20662;-84
2023/05/30 03:11:34;;;;;;;8.63;3.40;;;;;;;14.50;67.92;98409.47;5071776;28;20306;-84
2023/05/30 03:14:01;;;;;;;5.77;4.00;;;;;;;14.60;67.64;98405.13;5071448;28;20227;-84
2023/05/30 03:16:28;;;;;;;5.13;3.70;;;;;;;14.57;67.71;98405.34;5071386;28;20231;-84
2023/05/30 03:18:54;;;;;;;4.57;3.40;;;;;;;14.57;67.78;98406.22;5071832;28;20578;-84
2023/05/30 03:21:22;;;;;;;5.37;3.90;;;;;;;14.55;68.07;98407.31;5071152;28;20210;-84
2023/05/30 03:23:51;;;;;;;5.60;4.07;;;;;;;14.55;67.79;98407.31;5071345;28;20265;-84
2023/05/30 03:26:19;;;;;;;5.70;3.70;;;;;;;14.43;68.32;98408.28;5071637;28;20588;-84
2023/05/30 03:28:46;;;;;;;6.63;4.00;;;;;;;14.37;69.10;98406.94;5071346;28;20211;-84
2023/05/30 03:31:13;;;;;;;5.93;3.70;;;;;;;14.23;69.69;98403.72;5070754;28;20210;-84
2023/05/30 03:33:39;;;;;;;5.07;3.63;;;;;;;14.18;70.50;98416.50;5085868;22;20591;-76
2023/05/30 03:36:07;;;;;;;5.90;4.00;;;;;;;14.11;71.09;98417.97;5071376;28;20321;-75
2023/05/30 03:38:34;;;;;;;5.57;3.87;;;;;;;14.09;71.41;98420.72;5071316;28;20222;-77
2023/05/30 03:41:01;;;;;;;5.20;3.77;;;;;;;14.15;71.31;98424.69;5070645;28;20211;-75
2023/05/30 03:43:28;;;;;;;5.67;3.57;;;;;;;14.06;72.23;98430.75;5071001;28;20232;-75
2023/05/30 03:45:55;;;;;;;5.00;3.53;;;;;;;14.01;72.35;98423.16;5071387;28;20236;-75
2023/05/30 03:48:21;;;;;;;6.00;4.13;;;;;;;14.09;72.71;98431.34;5071288;28;20207;-77
2023/05/30 03:50:50;;;;;;;7.43;4.20;;;;;;;14.23;72.10;98425.00;5070435;28;20211;-75
2023/05/30 03:53:17;;;;;;;6.43;3.43;;;;;;;14.24;72.31;98432.00;5070957;28;20234;-77
2023/05/30 03:55:43;;;;;;;5.10;3.80;;;;;;;14.31;72.30;98434.03;5070982;28;20219;-75
2023/05/30 03:58:10;;;;;;;5.33;3.83;;;;;;;14.30;72.29;98439.50;5070935;28;20219;-76
2023/05/30 04:00:38;;;;;;;7.13;4.00;;;;;;;14.38;72.32;98432.59;5070380;28;20242;-77
2023/05/30 04:03:05;;;;;;;7.40;3.77;;;;;;;14.38;72.14;98437.06;5071065;28;20218;-76
2023/05/30 04:05:31;;;;;;;5.10;3.93;;;;;;;14.40;72.50;98432.44;5071068;28;20685;-76
2023/05/30 04:07:58;;;;;;;5.37;3.50;;;;;;;14.34;72.85;98432.94;5074247;28;20218;-77
2023/05/30 04:10:24;;;;;;;5.67;3.80;;;;;;;14.35;72.88;98438.16;5074437;28;20211;-77
2023/05/30 04:12:51;;;;;;;7.50;3.90;;;;;;;14.44;72.65;98440.09;5075124;28;20217;-77
2023/05/30 04:15:17;;;;;;;6.50;3.70;;;;;;;14.43;72.30;98445.53;5075128;28;20321;-75
2023/05/30 04:17:45;;;;;;;6.23;4.10;;;;;;;14.41;72.67;98442.13;5075108;28;20231;-75
2023/05/30 04:20:12;;;;;;;7.17;4.43;;;;;;;14.42;72.75;98449.97;5074222;28;20206;-75
2023/05/30 04:22:39;;;;;;;6.33;4.20;;;;;;;14.50;72.33;98449.38;5074955;28;20203;-75
2023/05/30 04:25:06;;;;;;;4.87;3.53;;;;;;;14.48;72.45;98451.31;5074607;28;20235;-75
2023/05/30 04:27:34;;;;;;;5.20;4.20;;;;;;;14.42;72.94;98449.16;5074982;28;20207;-75
2023/05/30 04:30:02;;;;;;;6.37;4.00;;;;;;;14.42;72.76;98449.16;5073950;28;20208;-75
2023/05/30 04:32:33;;;;;;;5.83;3.70;;;;;;;14.33;73.65;98450.72;5074854;28;20253;-75
2023/05/30 04:35:02;;;;;;;6.77;3.80;;;;;;;14.44;73.06;98450.72;5074547;28;20235;-75
2023/05/30 04:37:28;;;;;;;7.80;4.07;;;;;;;14.43;73.25;98451.66;5074419;28;20296;-75
2023/05/30 04:39:55;;;;;;;5.40;3.70;;;;;;;14.53;72.65;98446.47;5073747;28;20670;-75
2023/05/30 04:42:23;;;;;;;6.80;4.20;;;;;;;14.56;72.44;98462.19;5074726;28;20219;-75
2023/05/30 04:44:50;;;;;;;5.50;3.87;;;;;;;14.59;72.45;98464.59;5074320;28;20238;-75
2023/05/30 04:47:17;;;;;;;6.93;4.27;;;;;;;14.63;72.18;98461.59;5074437;28;20333;-75
2023/05/30 04:49:44;;;;;;;5.37;3.70;;;;;;;14.70;72.17;98465.44;5073530;28;20203;-76
2023/05/30 04:52:12;;;;;;;5.47;3.97;;;;;;;14.72;71.96;98467.97;5074289;28;20207;-76
2023/05/30 04:54:38;;;;;;;5.63;3.80;;;;;;;14.78;71.79;98478.13;5074301;28;20235;-75
2023/05/30 04:57:05;;;;;;;5.13;3.80;;;;;;;14.79;71.72;98469.19;5074147;28;20227;-73
2023/05/30 04:59:32;;;;;;;6.23;4.00;;;;;;;14.81;71.68;98477.88;5073348;28;20214;-73
2023/05/30 05:01:58;;;;;;;5.87;3.90;;;;;;;14.88;71.31;98473.75;5073955;28;20215;-73
2023/05/30 05:04:25;;;;;;;5.90;3.63;;;;;;;14.96;71.39;98477.47;5073981;28;20250;-73
2023/05/30 05:06:51;;;;;;;7.70;4.20;;;;;;;15.03;71.35;98483.97;5073751;28;20657;-73
2023/05/30 05:09:20;;;;;;;5.17;3.67;;;;;;;15.10;70.51;98479.03;5073407;28;20203;-73
2023/05/30 05:11:47;;;;;;;5.40;3.87;;;;;;;15.20;70.46;98485.25;5073940;28;20290;-73
2023/05/30 05:14:14;;;;;;;5.50;3.73;;;;;;;15.37;70.15;98476.75;5073714;28;20242;-74
2023/05/30 05:16:40;;;;;;;5.83;4.23;;;;;;;15.60;68.70;98473.03;5073806;28;20238;-74
2023/05/30 05:19:06;;;;;;;5.13;3.70;;;;;;;15.71;67.40;98468.47;5072702;28;20222;-73
2023/05/30 05:21:33;;;;;;;5.53;3.27;;;;;;;15.79;67.08;98470.50;5073480;28;20208;-73
2023/05/30 05:24:00;;;;;;;8.73;3.70;;;;;;;15.84;66.74;98476.28;5073812;28;20234;-73
2023/05/30 05:26:27;;;;;;;7.80;3.70;;;;;;;15.93;66.17;98471.03;5073762;28;20599;-73
2023/05/30 05:28:55;;;;;;;9.40;4.17;;;;;;;16.05;65.49;98464.66;5073647;28;20215;-73
2023/05/30 05:31:21;;;;;;;4.70;3.53;;;;;;;16.03;65.55;98456.75;5072573;28;20219;-73
2023/05/30 05:33:48;;;;;;;7.43;3.73;;;;;;;16.23;64.25;98463.91;5073271;28;20246;-73
2023/05/30 05:36:14;;;;;;;5.13;3.63;;;;;;;16.22;64.55;98458.72;5073317;28;20215;-73
2023/05/30 05:38:41;;;;;;;5.10;3.77;;;;;;;16.19;64.54;98470.47;5073623;28;20214;-75
2023/05/30 05:41:07;;;;;;;5.30;3.93;;;;;;;16.29;63.68;98462.53;5072789;28;20214;-72
2023/05/30 05:43:36;;;;;;;7.37;3.77;;;;;;;16.12;64.42;98473.81;5073271;28;20239;-73
2023/05/30 05:46:03;;;;;;;5.97;3.80;;;;;;;16.21;64.35;98470.34;5073379;28;20214;-73
2023/05/30 05:48:29;;;;;;;5.37;4.00;;;;;;;16.29;63.77;98470.53;5073156;28;20222;-74
2023/05/30 05:50:56;;;;;;;5.40;3.70;;;;;;;16.37;63.98;98476.88;5072375;28;20674;-74
2023/05/30 05:53:22;;;;;;;6.80;3.70;;;;;;;16.35;64.18;98478.00;5073299;28;20231;-74
2023/05/30 05:55:49;;;;;;;5.83;3.53;;;;;;;16.27;63.96;98475.97;5072950;28;20670;-73
2023/05/30 05:58:15;;;;;;;7.57;3.40;;;;;;;16.26;63.93;98478.78;5073178;28;20231;-75
2023/05/30 06:00:43;;;;;;;8.00;4.30;;;;;;;16.26;64.05;98484.97;5072195;28;20276;-74
2023/05/30 06:03:10;;;;;;;7.70;4.07;;;;;;;16.41;63.44;98489.00;5072743;28;20579;-74
2023/05/30 06:05:36;;;;;;;5.00;3.20;;;;;;;16.39;63.26;98488.28;5073020;28;20214;-73
2023/05/30 06:08:03;;;;;;;6.10;3.80;;;;;;;16.47;63.38;98493.78;5072932;28;20215;-73
2023/05/30 06:10:29;;;;;;;5.27;3.60;;;;;;;16.49;63.08;98491.84;5072168;28;20212;-74
2023/05/30 06:12:56;;;;;;;5.73;3.70;;;;;;;16.62;62.95;98486.28;5072669;28;20207;-74
2023/05/30 06:15:22;;;;;;;6.03;3.90;;;;;;;16.55;62.72;98486.00;5072737;28;20207;-74
2023/05/30 06:17:50;;;;;;;5.30;3.77;;;;;;;16.56;62.59;98493.00;5072459;28;20702;-73
2023/05/30 06:20:17;;;;;;;6.50;3.90;;;;;;;16.66;62.67;98493.91;5072078;28;20203;-74
2023/05/30 06:22:43;;;;;;;5.77;3.50;;;;;;;16.82;62.39;98502.22;5072862;28;20207;-78
2023/05/30 06:25:10;;;;;;;7.80;4.10;;;;;;;16.96;61.89;98507.19;5072439;28;20238;-74
2023/05/30 06:27:36;;;;;;;7.23;3.60;;;;;;;17.10;61.57;98490.78;5072517;28;20591;-75
2023/05/30 06:30:03;;;;;;;5.67;3.80;;;;;;;17.27;60.68;98492.78;5070814;28;20214;-75
2023/05/30 06:32:29;;;;;;;6.73;3.50;;;;;;;17.47;60.28;98491.84;5072028;28;20203;-75
2023/05/30 06:34:57;;;;;;;6.07;3.30;;;;;;;17.62;59.70;98482.41;5072236;28;20611;-75
2023/05/30 06:37:24;;;;;;;5.53;3.00;;;;;;;17.79;58.83;98481.69;5072037;28;20227;-74
2023/05/30 06:39:50;;;;;;;5.03;3.40;;;;;;;17.91;58.29;98480.56;5071610;28;20218;-74
2023/05/30 06:42:17;;;;;;;4.73;3.53;;;;;;;17.79;58.55;98495.06;5072116;28;20207;-74
2023/05/30 06:44:43;;;;;;;7.83;3.30;;;;;;;17.81;58.59;98484.25;5071851;28;20227;-74
2023/05/30 06:47:10;;;;;;;5.13;3.57;;;;;;;17.94;58.54;98490.13;5071921;28;20674;-74
2023/05/30 06:49:36;;;;;;;6.73;3.90;;;;;;;18.06;57.03;98484.50;5071401;28;20204;-74
2023/05/30 06:52:05;;;;;;;6.47;3.33;;;;;;;18.15;56.85;98488.97;5072025;28;20226;-74
2023/05/30 06:54:32;;;;;;;5.90;3.53;;;;;;;18.25;56.13;98479.09;5071933;28;20234;-74
2023/05/30 06:57:02;;;;;;;7.63;3.20;;;;;;;18.25;55.78;98479.09;5071677;28;20231;-74
2023/05/30 06:59:29;;;;;;;6.30;3.77;;;;;;;18.19;55.68;98470.78;5071053;28;20215;-74
2023/05/30 07:01:55;;;;;;;5.07;3.20;;;;;;;18.18;55.50;98469.13;5070496;28;20222;-74
2023/05/30 07:04:23;;;;;;;6.77;3.40;;;;;;;18.06;55.80;98479.16;5069369;28;20234;-74
2023/05/30 07:06:50;;;;;;;5.93;3.17;;;;;;;18.04;56.19;98481.09;5069860;28;20260;-74
2023/05/30 07:09:17;;;;;;;4.67;3.30;;;;;;;17.99;56.53;98483.34;5070826;28;20221;-74
2023/05/30 07:11:44;;;;;;;5.40;3.40;;;;;;;18.04;56.33;98477.59;5071531;28;20203;-74
2023/05/30 07:14:11;;;;;;;4.57;3.27;;;;;;;18.05;56.53;98481.97;5071435;28;20748;-74
2023/05/30 07:16:37;;;;;;;7.90;3.67;;;;;;;18.03;55.46;98460.69;5071355;28;20609;-74
2023/05/30 07:19:05;;;;;;;8.50;3.73;;;;;;;17.89;57.17;98484.38;5071204;28;20259;-78
2023/05/30 07:21:31;;;;;;;6.80;4.15;;;;;;;17.94;56.95;98482.97;5069889;28;20796;-77
2023/05/30 07:23:58;;;;;;;6.10;3.27;;;;;;;18.04;56.70;98491.81;5071435;28;20227;-77
2023/05/30 07:26:26;;;;;;;8.97;3.80;;;;;;;18.18;56.39;98483.34;5071350;28;20666;-78
2023/05/30 07:28:52;;;;;;;5.93;3.13;;;;;;;18.02;56.23;98485.75;5071275;28;20688;-78
2023/05/30 07:31:19;;;;;;;7.40;3.70;;;;;;;18.19;56.00;98485.03;5070783;28;20230;-78
2023/05/30 07:33:45;;;;;;;6.10;3.40;;;;;;;18.23;55.33;98483.72;5071034;28;20243;-78
2023/05/30 07:36:12;;;;;;;6.53;3.17;;;;;;;18.24;57.18;98503.31;5075743;28;20224;-79
2023/05/30 07:38:38;;;;;;;7.47;3.37;;;;;;;18.14;57.27;98502.47;5091345;28;20233;-76
2023/05/30 07:41:05;;;;;;;5.67;3.33;;;;;;;18.08;55.92;98487.88;5090423;28;20229;-76
2023/05/30 07:43:33;;;;;;;5.70;3.57;;;;;;;17.98;56.59;98495.03;5090970;28;20226;-77
2023/05/30 07:45:59;;;;;;;5.43;3.10;;;;;;;18.12;56.29;98491.94;5091300;28;20584;-77
2023/05/30 07:48:26;;;;;;;5.30;3.47;;;;;;;18.28;57.62;98505.53;5091395;28;20211;-77
2023/05/30 07:50:52;;;;;;;7.27;3.50;;;;;;;18.36;57.39;98502.19;5089896;28;20210;-77
2023/05/30 07:53:20;;;;;;;4.53;3.37;;;;;;;18.42;59.24;98513.13;5091284;28;20404;-76
2023/05/30 07:55:47;;;;;;;5.10;3.33;;;;;;;18.55;57.46;98497.63;5091269;28;20306;-76
2023/05/30 07:58:13;;;;;;;7.33;3.40;;;;;;;18.67;56.47;98496.44;5091308;28;20223;-74
2023/05/30 08:00:41;;;;;;;5.30;3.23;;;;;;;18.51;56.10;98481.97;5090576;28;20218;-76
2023/05/30 08:03:08;;;;;;;5.27;3.13;;;;;;;18.46;55.59;98476.25;5091180;28;20594;-75
2023/05/30 08:05:35;;;;;;;7.23;3.27;;;;;;;18.64;56.37;98490.50;5091262;28;20210;-75
2023/05/30 08:08:01;;;;;;;6.53;3.50;;;;;;;18.76;56.60;98490.19;5090987;28;20628;-75
2023/05/30 08:10:28;;;;;;;5.73;2.70;;;;;;;18.76;55.88;98484.84;5090366;28;20215;-74
2023/05/30 08:12:55;;;;;;;7.83;3.47;;;;;;;18.69;54.95;98474.84;5091155;28;20206;-74
2023/05/30 08:15:21;;;;;;;5.67;3.37;;;;;;;18.84;55.76;98487.59;5091054;28;20207;-75
2023/05/30 08:17:50;;;;;;;4.83;3.10;;;;;;;18.86;55.17;98477.59;5090845;28;20222;-74
2023/05/30 08:20:17;;;;;;;5.63;3.43;;;;;;;19.02;54.28;98468.91;5090382;28;20297;-74
2023/05/30 08:22:43;;;;;;;6.93;3.20;;;;;;;19.06;55.23;98479.19;5090970;28;20301;-75
2023/05/30 08:25:10;;;;;;;6.40;3.73;;;;;;;19.13;53.80;98460.69;5090873;28;20230;-74
2023/05/30 08:27:37;;;;;;;5.07;3.00;;;;;;;19.18;54.59;98469.94;5091017;28;20256;-74
2023/05/30 08:30:05;;;;;;;5.67;3.00;;;;;;;19.30;55.57;98484.84;5090362;28;20297;-75
2023/05/30 08:32:32;;;;;;;6.77;3.30;;;;;;;19.43;54.63;98473.72;5090843;28;20211;-75
2023/05/30 08:35:00;;;;;;;5.77;3.80;;;;;;;19.57;53.60;98471.34;5090691;28;20238;-75
2023/05/30 08:37:27;;;;;;;6.70;3.60;;;;;;;19.64;52.95;98459.00;5090672;28;20293;-78
2023/05/30 08:39:54;;;;;;;5.50;3.40;;;;;;;19.78;53.09;98469.22;5090209;28;20210;-79
2023/05/30 08:42:20;;;;;;;6.90;3.13;;;;;;;19.88;51.41;98443.13;5091277;28;20207;-81
2023/05/30 08:44:47;;;;;;;8.23;3.10;;;;;;;19.85;54.18;98486.38;5090712;28;20223;-79
2023/05/30 08:47:16;;;;;;;7.83;3.60;;;;;;;19.92;53.08;98460.59;5090805;28;20210;-80
2023/05/30 08:49:45;;;;;;;4.03;3.07;;;;;;;20.06;53.53;98467.28;5089980;28;20211;-81
2023/05/30 08:52:15;;;;;;;5.87;3.87;;;;;;;20.23;53.55;98471.75;5090493;28;20441;-80
2023/05/30 08:54:48;;;;;;;5.53;3.53;;;;;;;20.35;51.16;98447.16;5093099;28;20472;-80
2023/05/30 08:57:23;;;;;;;6.37;3.47;;;;;;;20.37;49.71;98429.03;5094533;28;20210;-78
2023/05/30 08:59:50;;;;;;;5.10;3.20;;;;;;;20.37;52.85;98466.63;5093618;28;20212;-78
2023/05/30 09:02:20;;;;;;;8.60;3.70;;;;;;;20.47;49.93;98440.50;5094374;28;20207;-78
2023/05/30 09:04:48;;;;;;;4.33;3.30;;;;;;;20.44;51.18;98446.22;5094429;28;20227;-78
2023/05/30 09:07:16;;;;;;;5.90;3.33;;;;;;;20.43;48.61;98414.16;5093500;28;20906;-77
2023/05/30 09:09:45;;;;;;;5.43;3.73;;;;;;;20.41;51.83;98457.25;5093516;28;20250;-78
2023/05/30 09:12:12;;;;;;;6.57;3.70;;;;;;;20.40;53.95;98474.38;5094038;28;20203;-77
2023/05/30 09:14:38;;;;;;;6.17;3.20;;;;;;;20.49;53.06;98465.34;5093905;28;20609;-78
2023/05/30 09:17:06;;;;;;;6.73;4.07;;;;;;;20.60;53.09;98457.03;5093396;28;20218;-77
2023/05/30 09:19:34;;;;;;;6.97;3.20;;;;;;;20.61;52.31;98458.69;5092118;28;20226;-76
2023/05/30 09:22:01;;;;;;;4.03;3.00;;;;;;;20.75;50.46;98433.94;5091435;28;20554;-76
2023/05/30 09:24:54;;;;;;;7.33;3.43;;;;;;;20.75;52.24;98459.94;5091274;28;20618;-76
2023/05/30 09:27:21;;;;;;;5.63;3.47;;;;;;;20.77;51.79;98453.41;5091485;28;20630;-76
2023/05/30 09:29:47;;;;;;;5.30;3.30;;;;;;;20.86;51.33;98443.53;5092496;28;20203;-76
2023/05/30 09:32:14;;;;;;;4.37;3.30;;;;;;;21.06;53.18;98470.03;5093305;28;20211;-77
2023/05/30 09:34:41;;;;;;;6.20;3.47;;;;;;;21.19;52.48;98464.16;5095599;22;20235;-84
2023/05/30 09:37:07;;;;;;;8.17;3.70;;;;;;;21.30;49.68;98437.81;5070872;28;20216;-85
2023/05/30 09:39:36;;;;;;;6.73;3.20;;;;;;;21.29;51.41;98454.97;5070092;28;20230;-84
2023/05/30 09:42:06;;;;;;;8.10;3.70;;;;;;;21.43;51.90;98457.00;5072879;28;20207;-86
2023/05/30 09:44:32;;;;;;;5.03;3.57;;;;;;;21.55;51.49;98450.31;5073476;28;20223;-81
2023/05/30 09:46:59;;;;;;;6.10;3.43;;;;;;;21.71;51.47;98455.69;5072205;28;20212;-87
2023/05/30 09:49:27;;;;;;;4.80;3.30;;;;;;;21.82;48.77;98431.16;5070469;28;20200;-87
2023/05/30 09:51:54;;;;;;;9.03;3.73;;;;;;;21.91;49.66;98432.84;5070920;28;20207;-81
2023/05/30 09:54:21;;;;;;;5.60;3.50;;;;;;;22.02;49.09;98419.03;5070821;28;20230;-80
2023/05/30 09:56:49;;;;;;;5.67;3.30;;;;;;;21.98;46.98;98416.84;5073259;28;20207;-77
2023/05/30 09:59:15;;;;;;;5.70;3.30;;;;;;;21.91;47.61;98408.63;5071896;28;20227;-80
2023/05/30 10:01:44;;;;;;;8.37;3.77;;;;;;;21.93;47.50;98414.66;5070358;28;20238;-80
2023/05/30 10:04:12;;;;;;;5.47;3.30;;;;;;;22.08;47.95;98412.94;5069898;28;20233;-78
2023/05/30 10:06:41;;;;;;;5.93;3.10;;;;;;;22.25;46.59;98393.06;5069976;28;20207;-78
2023/05/30 10:09:08;;;;;;;6.57;3.60;;;;;;;22.25;47.27;98401.13;5071651;28;20215;-80
2023/05/30 10:11:35;;;;;;;5.73;3.27;;;;;;;22.26;47.54;98405.50;5072859;28;20207;-80
2023/05/30 10:14:03;;;;;;;4.67;3.23;;;;;;;22.38;50.86;98455.31;5070709;28;20280;-79
2023/05/30 10:16:33;;;;;;;5.23;3.10;;;;;;;22.36;48.48;98413.44;5070141;28;20692;-82
2023/05/30 10:19:02;;;;;;;7.67;4.10;;;;;;;22.47;44.92;98368.13;5069766;28;20231;-78
2023/05/30 10:21:32;;;;;;;4.53;2.97;;;;;;;22.55;47.87;98403.09;5070246;28;20211;-81
2023/05/30 10:24:00;;;;;;;4.37;3.03;;;;;;;22.64;49.33;98429.00;5072857;28;20231;-81
2023/05/30 10:26:30;;;;;;;5.47;3.50;;;;;;;22.52;45.78;98379.22;5072040;28;20219;-81
2023/05/30 10:28:57;;;;;;;6.27;3.60;;;;;;;22.40;46.17;98371.63;5072312;28;20218;-81
2023/05/30 10:31:26;;;;;;;4.07;3.13;;;;;;;22.36;47.83;98392.69;5071042;28;20298;-82
2023/05/30 10:33:53;;;;;;;5.40;3.27;;;;;;;22.43;46.52;98376.72;5071765;28;20235;-80
2023/05/30 10:36:20;;;;;;;5.10;3.40;;;;;;;22.49;47.98;98398.41;5072110;28;20218;-80
2023/05/30 10:38:52;;;;;;;6.97;3.57;;;;;;;22.68;46.61;98376.44;5072321;28;20558;-78
2023/05/30 10:41:25;;;;;;;4.80;3.33;;;;;;;22.67;45.06;98363.16;5071405;28;20566;-79
2023/05/30 10:44:04;;;;;;;5.97;3.33;;;;;;;22.60;45.54;98368.41;5072087;28;20231;-80
2023/05/30 10:46:44;;;;;;;5.07;3.30;;;;;;;22.65;45.30;98357.94;5071874;28;20211;-81
2023/05/30 10:49:15;;;;;;;5.43;3.07;;;;;;;22.74;50.18;98424.25;5071377;28;20230;-80
2023/05/30 10:52:01;;;;;;;4.17;3.20;;;;;;;22.93;47.09;98394.16;5071926;28;20207;-78
2023/05/30 10:54:31;;;;;;;8.67;3.30;;;;;;;23.06;46.48;98390.91;5072040;28;20227;-81
2023/05/30 10:56:58;;;;;;;6.03;3.10;;;;;;;23.21;45.87;98376.50;5071714;28;20207;-82
2023/05/30 10:59:24;;;;;;;6.20;3.30;;;;;;;23.20;47.20;98387.47;5071169;28;20227;-83
2023/05/30 11:02:02;;;;;;;6.80;3.23;;;;;;;23.31;48.82;98401.41;5071811;28;20615;-83
2023/05/30 11:04:32;;;;;;;4.40;3.47;;;;;;;23.46;43.87;98334.84;5071844;28;20230;-82
2023/05/30 11:06:58;;;;;;;4.10;3.00;;;;;;;23.40;46.08;98367.94;5071703;28;20230;-82
2023/05/30 11:09:26;;;;;;;6.77;3.10;;;;;;;23.41;43.60;98337.22;5070837;28;20200;-85
2023/05/30 11:11:56;;;;;;;6.70;3.20;;;;;;;23.40;42.63;98311.28;5072000;28;20261;-81
2023/05/30 11:14:25;;;;;;;5.13;3.33;;;;;;;23.55;44.10;98339.16;5071529;28;20234;-80
2023/05/30 11:16:57;;;;;;;6.97;3.37;;;;;;;23.65;45.04;98353.22;5068828;28;20211;-81
2023/05/30 11:19:27;;;;;;;5.70;2.90;;;;;;;23.72;45.30;98351.47;5066431;28;20235;-81
2023/05/30 11:21:54;;;;;;;4.37;2.70;;;;;;;24.01;45.66;98364.22;5068458;28;20233;-81
2023/05/30 11:24:21;;;;;;;4.90;2.97;;;;;;;24.23;46.13;98366.84;5068567;28;20255;-81
2023/05/30 11:26:59;;;;;;;5.33;2.87;;;;;;;24.25;43.82;98334.25;5070155;28;20243;-81
2023/05/30 11:29:30;;;;;;;5.03;3.20;;;;;;;24.37;42.76;98314.66;5070615;28;20290;-81
2023/05/30 11:31:57;;;;;;;4.05;3.20;;;;;;;24.40;43.91;98325.13;5068769;28;20442;-80
2023/05/30 11:34:23;;;;;;;4.93;3.27;;;;;;;24.57;42.51;98314.97;5068380;28;20725;-81
2023/05/30 11:36:51;;;;;;;5.00;3.13;;;;;;;24.41;42.75;98315.13;5070368;28;20605;-81